sensor_id;sensor_type;location;lat;lon;timestamp;temperature;humidity
2543;DHT22;1116;51.502;7.414;2024-02-15T20:22:19;14.10;25.50
2543;DHT22;1116;51.502;7.414;2024-02-15T20:27:22;14.00;25.40
2543;DHT22;1116;51.502;7.414;2024-02-15T20:29:52;14.00;25.90
2543;DHT22;1116;51.502;7.414;2024-02-15T20:32:22;14.00;25.80
2543;DHT22;1116;51.502;7.414;2024-02-15T20:34:52;14.00;25.90
2543;DHT22;1116;51.502;7.414;2024-02-15T20:37:23;14.00;25.90
2543;DHT22;1116;51.502;7.414;2024-02-15T20:39:53;13.90;27.60
2543;DHT22;1116;51.502;7.414;2024-02-15T20:42:26;13.90;25.70
2543;DHT22;1116;51.502;7.414;2024-02-15T20:44:56;13.90;26.10
2543;DHT22;1116;51.502;7.414;2024-02-15T20:47:27;13.80;26.90
2543;DHT22;1116;51.502;7.414;2024-02-15T20:50:00;13.80;27.10
2543;DHT22;1116;51.502;7.414;2024-02-15T20:52:30;13.70;27.10
2543;DHT22;1116;51.502;7.414;2024-02-15T20:55:00;13.70;27.90
2543;DHT22;1116;51.502;7.414;2024-02-15T20:57:33;13.70;27.20
2543;DHT22;1116;51.502;7.414;2024-02-15T21:00:07;13.70;27.70
2543;DHT22;1116;51.502;7.414;2024-02-15T21:02:41;13.70;26.20
2543;DHT22;1116;51.502;7.414;2024-02-15T21:05:12;13.60;26.40
2543;DHT22;1116;51.502;7.414;2024-02-15T21:07:43;13.70;26.20
2543;DHT22;1116;51.502;7.414;2024-02-15T21:10:19;13.70;27.90
2543;DHT22;1116;51.502;7.414;2024-02-15T21:12:52;13.90;26.30
2543;DHT22;1116;51.502;7.414;2024-02-15T21:15:24;13.70;26.30
2543;DHT22;1116;51.502;7.414;2024-02-15T21:17:54;13.60;25.60
2543;DHT22;1116;51.502;7.414;2024-02-15T21:20:24;13.60;25.50
2543;DHT22;1116;51.502;7.414;2024-02-15T21:22:58;13.60;25.60
2543;DHT22;1116;51.502;7.414;2024-02-15T21:25:32;13.70;25.60
2543;DHT22;1116;51.502;7.414;2024-02-15T21:28:05;13.70;26.50
2543;DHT22;1116;51.502;7.414;2024-02-15T21:30:35;13.70;26.30
2543;DHT22;1116;51.502;7.414;2024-02-15T21:33:10;13.70;25.60
2543;DHT22;1116;51.502;7.414;2024-02-15T21:35:40;13.60;25.50
2543;DHT22;1116;51.502;7.414;2024-02-15T21:38:10;13.60;25.60
2543;DHT22;1116;51.502;7.414;2024-02-15T21:40:40;13.70;25.60
2543;DHT22;1116;51.502;7.414;2024-02-15T21:43:13;13.60;27.10
2543;DHT22;1116;51.502;7.414;2024-02-15T21:45:48;13.60;26.40
2543;DHT22;1116;51.502;7.414;2024-02-15T21:48:18;13.60;25.60
2543;DHT22;1116;51.502;7.414;2024-02-15T21:50:48;13.70;26.70
2543;DHT22;1116;51.502;7.414;2024-02-15T21:53:18;13.70;25.60
2543;DHT22;1116;51.502;7.414;2024-02-15T21:55:48;13.70;25.60
2543;DHT22;1116;51.502;7.414;2024-02-15T21:58:21;13.70;25.70
2543;DHT22;1116;51.502;7.414;2024-02-15T22:00:51;13.70;27.00
2543;DHT22;1116;51.502;7.414;2024-02-15T22:03:24;13.70;27.00
2543;DHT22;1116;51.502;7.414;2024-02-15T22:05:54;13.70;25.60
2543;DHT22;1116;51.502;7.414;2024-02-15T22:08:24;13.70;27.00
2543;DHT22;1116;51.502;7.414;2024-02-15T22:10:55;13.70;26.10
2543;DHT22;1116;51.502;7.414;2024-02-15T22:13:27;13.70;25.60
2543;DHT22;1116;51.502;7.414;2024-02-15T22:15:59;13.70;25.70
2543;DHT22;1116;51.502;7.414;2024-02-15T22:18:30;13.80;25.70
2543;DHT22;1116;51.502;7.414;2024-02-15T22:21:01;13.80;25.70
2543;DHT22;1116;51.502;7.414;2024-02-15T22:23:32;13.80;25.80
2543;DHT22;1116;51.502;7.414;2024-02-15T22:26:02;13.80;25.70
2543;DHT22;1116;51.502;7.414;2024-02-15T22:28:35;13.90;25.70
2543;DHT22;1116;51.502;7.414;2024-02-15T22:31:05;13.90;26.10
2543;DHT22;1116;51.502;7.414;2024-02-15T22:33:35;13.80;27.00
2543;DHT22;1116;51.502;7.414;2024-02-15T22:36:51;13.90;25.80
2543;DHT22;1116;51.502;7.414;2024-02-15T22:39:50;13.90;26.30
2543;DHT22;1116;51.502;7.414;2024-02-15T22:42:58;13.90;25.60
2543;DHT22;1116;51.502;7.414;2024-02-15T22:45:31;13.90;25.70
2543;DHT22;1116;51.502;7.414;2024-02-15T22:48:02;13.90;26.00
2543;DHT22;1116;51.502;7.414;2024-02-15T22:50:33;13.90;25.80
2543;DHT22;1116;51.502;7.414;2024-02-15T22:53:03;13.90;25.40
2543;DHT22;1116;51.502;7.414;2024-02-15T22:55:32;13.90;25.80
2543;DHT22;1116;51.502;7.414;2024-02-15T22:58:06;14.00;25.70
2543;DHT22;1116;51.502;7.414;2024-02-15T23:00:39;14.30;24.90
2543;DHT22;1116;51.502;7.414;2024-02-15T23:03:09;14.10;25.90
2543;DHT22;1116;51.502;7.414;2024-02-15T23:05:39;14.00;25.10
2543;DHT22;1116;51.502;7.414;2024-02-15T23:08:09;14.00;25.40
2543;DHT22;1116;51.502;7.414;2024-02-15T23:10:50;14.00;25.80
2543;DHT22;1116;51.502;7.414;2024-02-15T23:13:20;14.00;25.80
2543;DHT22;1116;51.502;7.414;2024-02-15T23:15:53;14.00;24.80
2543;DHT22;1116;51.502;7.414;2024-02-15T23:18:24;14.00;24.20
2543;DHT22;1116;51.502;7.414;2024-02-15T23:21:00;14.00;23.90
2543;DHT22;1116;51.502;7.414;2024-02-15T23:23:33;14.10;24.00
2543;DHT22;1116;51.502;7.414;2024-02-15T23:26:04;14.10;24.60
2543;DHT22;1116;51.502;7.414;2024-02-15T23:28:36;14.00;24.40
2543;DHT22;1116;51.502;7.414;2024-02-15T23:31:08;14.00;24.40
2543;DHT22;1116;51.502;7.414;2024-02-15T23:33:43;14.10;23.50
2543;DHT22;1116;51.502;7.414;2024-02-15T23:36:16;14.10;23.50
2543;DHT22;1116;51.502;7.414;2024-02-15T23:39:17;14.10;23.30
2543;DHT22;1116;51.502;7.414;2024-02-15T23:42:25;14.10;23.00
2543;DHT22;1116;51.502;7.414;2024-02-15T23:44:56;14.10;22.40
2543;DHT22;1116;51.502;7.414;2024-02-15T23:47:29;14.10;23.60
2543;DHT22;1116;51.502;7.414;2024-02-15T23:49:59;14.00;24.00
2543;DHT22;1116;51.502;7.414;2024-02-15T23:52:29;14.00;23.40
2543;DHT22;1116;51.502;7.414;2024-02-15T23:55:07;14.10;22.80
2543;DHT22;1116;51.502;7.414;2024-02-15T23:57:45;14.10;22.60
